Hub


Voltar

 INFORMAÇÕES METEOROLÓGICAS

METAR FOR NTAA


ADDS - METARS form results

(2026 UTC 17 January 2019)
Data provider http://aviationweather.gov/metar/data/
 
METAR text: NTAA 172000Z 24006KT 9999 SCT026 30/24 Q1014 NOSIG
Conditions at: NTAA (TAHITI-FAAA POLY, WS) observed 2000 UTC 17 January 2019
Temperature: 30.0°C (86°F)
Dewpoint: 24.0°C (75°F) [RH = 70%]
Pressure (altimeter): 29.94 inches Hg (1014.0 mb)
Winds: from the WSW (240 degrees) at 7 MPH (6 knots; 3.1 m/s)
Visibility: 6 or more miles (10+ km)
Ceiling: at least 12,000 feet AGL
Clouds: scattered clouds at 2600 feet AGL
Weather: no significant weather observed at this time

METAR text: NTAA 171930Z 24006KT 9999 FEW026 30/24 Q1014 NOSIG
Conditions at: NTAA (TAHITI-FAAA POLY, WS) observed 1930 UTC 17 January 2019
Temperature: 30.0°C (86°F)
Dewpoint: 24.0°C (75°F) [RH = 70%]
Pressure (altimeter): 29.94 inches Hg (1014.0 mb)
Winds: from the WSW (240 degrees) at 7 MPH (6 knots; 3.1 m/s)
Visibility: 6 or more miles (10+ km)
Ceiling: at least 12,000 feet AGL
Clouds: few clouds at 2600 feet AGL
Weather: no significant weather observed at this time

Forecast for: NTAA (TAHITI-FAAA POLY, WS)
Text: TAF NTAA 171700Z 1718/1824 VRB02KT 9999 FEW025
Forecast period: 1800 UTC 17 January 2019 to 0000 UTC 19 January 2019
Forecast type: FROM: standard forecast or significant change
Winds: variable direction winds at 2 MPH (2 knots; 1.0 m/s)
Visibility: 6 or more miles 10+ km)
Ceiling: at least 12,000 feet AGL
Clouds: few clouds at 2500 feet AGL
Weather: no significant weather forecast for this period
Text: PROB30
Forecast period: 2100 UTC 17 January 2019 to 0200 UTC 18 January 2019
Forecast type: TEMPORARY: The following changes expected for less than half the time period
Winds: from the NE (50 degrees) at 14 MPH (12 knots; 6.2 m/s)
Visibility: missing
Ceiling: unknown
Clouds: missing
Weather: no significant weather forecast for this period


 MAPA DO AEROPORTO


 INFORMAÇÕES DA PISTA

Pista 04 Tamanho da pista 11360 ft Largura da pista 148 ft
Elevação da pista 5 ft Ranhura da pista 1120 ft Proa da pista 54
Pista 22 Tamanho da pista 11360 ft Largura da pista 148 ft
Elevação da pista 5 ft Ranhura da pista 390 ft Proa da pista 234

 FREQUÊNCIAS DO AEROPORTO

Tipo APP Nome APP Frequência 118.1 MHZ
Tipo ATIS Nome ATIS Frequência 128.8 MHZ
Tipo GND Nome GND Frequência 121.9 MHZ
Tipo TWR Nome TWR Frequência 118.1 MHZ

 AUXÍLIOS DE NAVEGAÇÃO PRÓXIMOS AO AEROPORTO

Tipo NDB Nome Tahiti Faaa Frequência 305 KHZ
Tipo VOR-DME Nome Tahiti Faaa Frequência 112900 KHZ